Time;durP1;ratioP1;P1;durP2;ratioP2;P2;SDS_P1;SDS_P2;PMS_P1;PMS_P2;Temp;Humidity;BMP_temperature;BMP_pressure;BME280_temperature;BME280_humidity;BME280_pressure;Samples;Min_cycle;Max_cycle;Signal;HPM_P1;HPM_P2
2021/10/15 00:01:17;;;;;;;2.87;0.90;;;21.80;60.50;;;;;;4041210;29;20029;-70
2021/10/15 00:03:20;;;;;;;4.65;0.98;;;21.80;60.70;;;;;;4045507;29;20040;-68
2021/10/15 00:05:22;;;;;;;2.22;1.00;;;21.70;60.90;;;;;;4038760;29;20053;-71
2021/10/15 00:07:25;;;;;;;5.63;0.93;;;21.80;61.00;;;;;;4045868;29;20800;-69
2021/10/15 00:09:27;;;;;;;1.70;0.70;;;21.80;61.20;;;;;;4041732;29;20056;-70
2021/10/15 00:11:30;;;;;;;1.65;0.82;;;21.70;61.10;;;;;;4042825;29;20048;-69
2021/10/15 00:13:33;;;;;;;1.00;0.60;;;21.70;61.00;;;;;;4037521;29;20035;-70
2021/10/15 00:15:35;;;;;;;1.95;0.70;;;21.70;61.00;;;;;;4025117;29;20037;-70
2021/10/15 00:17:38;;;;;;;1.40;0.93;;;21.70;61.00;;;;;;4045350;29;20036;-71
2021/10/15 00:19:40;;;;;;;1.50;0.60;;;21.70;61.10;;;;;;4042105;29;20040;-70
2021/10/15 00:21:43;;;;;;;2.88;0.77;;;21.70;61.20;;;;;;4043471;29;20299;-70
2021/10/15 00:23:45;;;;;;;2.10;0.83;;;21.70;61.20;;;;;;4047258;29;20124;-71
2021/10/15 00:25:48;;;;;;;1.53;0.77;;;21.70;61.10;;;;;;4049864;29;20332;-71
2021/10/15 00:27:50;;;;;;;2.75;1.10;;;21.80;61.80;;;;;;4052188;29;20040;-70
2021/10/15 00:29:53;;;;;;;1.88;0.80;;;21.70;61.10;;;;;;4054796;29;20055;-71
2021/10/15 00:31:55;;;;;;;1.43;0.60;;;21.70;61.20;;;;;;4054298;29;20040;-71
2021/10/15 00:33:58;;;;;;;3.08;0.80;;;21.80;61.20;;;;;;4050598;29;20343;-73
2021/10/15 00:36:01;;;;;;;3.65;0.88;;;21.70;61.10;;;;;;4057137;29;20040;-70
2021/10/15 00:38:03;;;;;;;3.10;0.77;;;21.70;61.10;;;;;;4060938;29;20052;-69
2021/10/15 00:40:06;;;;;;;2.53;1.02;;;21.70;61.30;;;;;;4060462;29;20136;-66
2021/10/15 00:42:09;;;;;;;4.15;1.15;;;21.70;61.10;;;;;;4051917;29;20048;-70
2021/10/15 00:44:13;;;;;;;1.35;0.90;;;21.70;61.10;;;;;;4057783;29;20116;-65
2021/10/15 00:46:16;;;;;;;1.95;1.05;;;21.70;61.10;;;;;;4054781;29;20065;-68
2021/10/15 00:48:18;;;;;;;1.70;0.90;;;21.70;60.80;;;;;;4050757;29;20037;-70
2021/10/15 00:50:21;;;;;;;1.60;0.90;;;21.70;60.50;;;;;;4052543;29;20074;-69
2021/10/15 00:52:24;;;;;;;3.15;1.20;;;21.70;60.70;;;;;;4054896;29;20043;-71
2021/10/15 00:54:27;;;;;;;1.35;0.70;;;21.70;60.70;;;;;;4059930;29;20084;-67
2021/10/15 00:56:31;;;;;;;3.33;1.08;;;21.80;60.90;;;;;;4056318;29;20040;-71
2021/10/15 00:58:33;;;;;;;2.28;0.70;;;21.80;60.90;;;;;;4055653;29;20135;-70
2021/10/15 01:00:36;;;;;;;3.33;1.23;;;21.80;61.00;;;;;;4057407;29;20041;-79
2021/10/15 01:02:39;;;;;;;1.63;0.80;;;21.80;61.00;;;;;;4062014;29;20119;-76
2021/10/15 01:04:42;;;;;;;1.80;0.60;;;21.80;60.90;;;;;;4058379;29;20036;-78
2021/10/15 01:06:44;;;;;;;1.98;0.85;;;21.90;61.00;;;;;;4064186;29;20482;-79
2021/10/15 01:08:48;;;;;;;1.85;1.10;;;21.90;61.60;;;;;;4055975;29;20040;-74
2021/10/15 01:10:51;;;;;;;2.00;0.75;;;21.90;61.00;;;;;;4058084;29;20039;-76
2021/10/15 01:12:56;;;;;;;9.15;1.40;;;21.90;61.00;;;;;;4064264;29;20040;-80
2021/10/15 01:14:58;;;;;;;4.95;1.65;;;21.90;59.90;;;;;;4061517;29;20144;-75
2021/10/15 01:17:05;;;;;;;4.68;1.42;;;21.90;58.30;;;;;;4060057;29;20126;-71
2021/10/15 01:19:08;;;;;;;7.10;1.77;;;21.90;57.30;;;;;;4057189;29;20051;-68
2021/10/15 01:21:12;;;;;;;19.58;1.88;;;21.90;56.80;;;;;;4059781;29;20887;-72
2021/10/15 01:23:14;;;;;;;4.90;1.83;;;21.90;56.90;;;;;;4059612;29;20134;-71
2021/10/15 01:25:17;;;;;;;3.97;1.40;;;21.90;57.00;;;;;;4061164;29;20043;-68
2021/10/15 01:27:20;;;;;;;3.13;1.55;;;21.80;57.40;;;;;;4057566;29;20040;-69
2021/10/15 01:29:25;;;;;;;4.05;1.50;;;21.90;57.50;;;;;;4052971;29;20066;-69
2021/10/15 01:31:28;;;;;;;6.32;1.50;;;21.80;57.80;;;;;;4051192;29;20060;-69
2021/10/15 01:33:31;;;;;;;3.55;1.35;;;21.90;58.30;;;;;;4038015;29;20086;-67
2021/10/15 01:35:34;;;;;;;4.93;1.52;;;21.90;58.60;;;;;;4041875;29;20041;-69
2021/10/15 01:37:36;;;;;;;4.80;2.00;;;21.90;58.70;;;;;;4056777;29;20040;-70
2021/10/15 01:39:39;;;;;;;4.15;1.20;;;21.90;59.00;;;;;;4053963;29;20498;-69
2021/10/15 01:41:42;;;;;;;5.20;1.60;;;21.90;59.30;;;;;;4051217;29;20112;-70
2021/10/15 01:43:44;;;;;;;7.43;1.90;;;21.90;59.30;;;;;;4052152;29;20262;-67
2021/10/15 01:45:47;;;;;;;2.63;1.30;;;21.90;59.40;;;;;;4047798;29;20136;-67
2021/10/15 01:47:50;;;;;;;3.40;1.43;;;21.90;59.50;;;;;;4056952;29;20391;-68
2021/10/15 01:49:53;;;;;;;4.10;1.73;;;22.00;59.50;;;;;;4055858;29;20171;-68
2021/10/15 01:51:55;;;;;;;;;;;22.00;59.50;;;;;;4053286;29;20143;-71
2021/10/15 01:53:57;;;;;;;3.80;1.30;;;22.00;59.20;;;;;;4048157;29;19922;-70
2021/10/15 01:56:00;;;;;;;6.82;1.63;;;22.00;59.10;;;;;;4059230;29;20044;-70
2021/10/15 01:58:03;;;;;;;3.88;1.40;;;22.10;59.00;;;;;;4056776;29;20040;-68
2021/10/15 02:00:08;;;;;;;2.75;1.27;;;22.10;59.20;;;;;;4057333;29;20128;-69
2021/10/15 02:02:10;;;;;;;4.50;1.30;;;22.10;59.00;;;;;;4053685;29;20051;-68
2021/10/15 02:04:13;;;;;;;5.40;1.40;;;22.10;58.90;;;;;;4052079;29;20044;-68
2021/10/15 02:06:16;;;;;;;3.73;1.80;;;22.10;58.80;;;;;;4053325;29;20179;-69
2021/10/15 02:08:19;;;;;;;9.80;2.13;;;22.10;57.80;;;;;;4043460;29;20982;-69
2021/10/15 02:10:21;;;;;;;4.70;1.50;;;22.10;56.60;;;;;;4054281;29;20048;-71
2021/10/15 02:12:24;;;;;;;5.70;1.67;;;22.00;55.40;;;;;;4040857;29;20305;-69
2021/10/15 02:14:27;;;;;;;12.32;1.60;;;22.00;55.20;;;;;;4063618;29;20036;-67
2021/10/15 02:16:29;;;;;;;6.70;1.70;;;22.00;55.80;;;;;;4053047;29;20139;-69
2021/10/15 02:18:32;;;;;;;6.05;1.48;;;22.00;56.00;;;;;;4053084;29;20051;-69
2021/10/15 02:20:35;;;;;;;14.55;2.30;;;22.00;56.00;;;;;;4050411;29;20040;-67
2021/10/15 02:22:47;;;;;;;11.55;2.15;;;22.10;56.50;;;;;;4053508;29;20033;-65
2021/10/15 02:24:50;;;;;;;10.85;1.98;;;22.10;56.60;;;;;;4053858;29;20051;-65
2021/10/15 02:26:53;;;;;;;6.05;1.73;;;22.00;55.60;;;;;;4052182;29;20544;-66
2021/10/15 02:28:55;;;;;;;9.98;2.03;;;22.00;54.20;;;;;;4059416;29;20446;-67
2021/10/15 02:30:58;;;;;;;6.75;1.50;;;22.00;53.00;;;;;;4057366;29;20078;-80
2021/10/15 02:33:02;;;;;;;9.93;1.75;;;22.00;52.80;;;;;;4057233;29;20130;-76
2021/10/15 02:35:06;;;;;;;5.70;1.83;;;21.90;53.00;;;;;;4053759;29;21525;-75
2021/10/15 02:37:09;;;;;;;7.75;1.83;;;21.90;52.60;;;;;;4042310;29;20043;-74
2021/10/15 02:39:12;;;;;;;9.60;1.77;;;21.90;52.70;;;;;;4053968;29;20067;-77
2021/10/15 02:41:15;;;;;;;7.00;1.33;;;21.80;52.30;;;;;;4050998;29;20040;-73
2021/10/15 02:43:17;;;;;;;7.35;1.75;;;21.80;52.50;;;;;;4052507;29;20040;-74
2021/10/15 02:45:20;;;;;;;8.15;1.80;;;21.80;52.30;;;;;;4060238;29;20039;-76
2021/10/15 02:47:23;;;;;;;5.95;1.55;;;21.80;52.30;;;;;;4059432;29;20131;-79
2021/10/15 02:49:26;;;;;;;5.45;1.35;;;21.70;52.30;;;;;;4053815;29;20087;-75
2021/10/15 02:51:28;;;;;;;5.47;1.60;;;21.70;52.10;;;;;;4054719;29;20040;-81
2021/10/15 02:53:31;;;;;;;5.30;1.70;;;21.70;52.30;;;;;;4058861;29;20047;-74
2021/10/15 02:55:33;;;;;;;5.13;1.67;;;21.70;52.30;;;;;;4062668;29;20100;-75
2021/10/15 02:57:36;;;;;;;4.88;1.48;;;21.70;52.20;;;;;;4063185;29;20071;-73
2021/10/15 02:59:39;;;;;;;7.13;1.90;;;21.70;52.00;;;;;;4064077;29;20043;-78
2021/10/15 03:01:41;;;;;;;7.53;2.08;;;21.70;52.20;;;;;;4063713;29;20123;-74
2021/10/15 03:03:44;;;;;;;6.57;1.30;;;21.70;52.10;;;;;;4062902;29;20040;-75
2021/10/15 03:05:46;;;;;;;5.20;1.57;;;21.60;52.20;;;;;;4056732;29;20307;-76
2021/10/15 03:07:49;;;;;;;2.97;1.23;;;21.60;52.80;;;;;;4053077;29;20420;-75
2021/10/15 03:09:51;;;;;;;3.90;1.35;;;21.60;52.20;;;;;;4062872;29;20307;-76
2021/10/15 03:11:57;;;;;;;5.13;1.13;;;21.60;52.20;;;;;;4061271;29;20086;-76
2021/10/15 03:14:00;;;;;;;6.20;1.35;;;21.60;52.20;;;;;;4062205;29;20728;-72
2021/10/15 03:16:02;;;;;;;4.13;1.10;;;21.60;52.50;;;;;;4062920;29;20558;-73
2021/10/15 03:18:05;;;;;;;2.45;0.80;;;21.60;52.40;;;;;;4060508;29;20050;-72
2021/10/15 03:20:08;;;;;;;7.65;1.30;;;21.60;52.90;;;;;;4061886;29;20757;-72
2021/10/15 03:22:11;;;;;;;3.80;1.52;;;21.60;52.80;;;;;;4060901;29;20103;-73
2021/10/15 03:24:13;;;;;;;5.53;1.33;;;21.60;52.80;;;;;;4063896;29;20044;-72
2021/10/15 03:26:16;;;;;;;4.07;1.17;;;21.60;52.70;;;;;;4062190;29;20415;-73
2021/10/15 03:28:18;;;;;;;9.65;1.30;;;21.50;52.80;;;;;;4054767;29;20088;-80
2021/10/15 03:30:21;;;;;;;4.47;0.90;;;21.50;52.90;;;;;;4047779;29;20044;-76
2021/10/15 03:32:23;;;;;;;3.80;1.15;;;21.50;52.90;;;;;;4066015;29;20322;-77
2021/10/15 03:34:26;;;;;;;4.67;1.30;;;21.50;52.90;;;;;;4046586;29;20459;-70
2021/10/15 03:36:29;;;;;;;4.33;1.27;;;21.50;52.50;;;;;;4063336;29;20047;-76
2021/10/15 03:38:32;;;;;;;3.00;0.82;;;21.40;52.70;;;;;;4064465;29;21230;-73
2021/10/15 03:40:34;;;;;;;4.85;1.05;;;21.50;52.60;;;;;;4060306;29;20549;-74
2021/10/15 03:42:37;;;;;;;2.17;0.70;;;21.40;52.30;;;;;;4063728;29;20064;-76
2021/10/15 03:44:40;;;;;;;2.58;1.10;;;21.40;51.80;;;;;;4063938;29;20701;-72
2021/10/15 03:46:42;;;;;;;5.80;1.37;;;21.40;51.40;;;;;;4062715;29;20032;-76
2021/10/15 03:48:45;;;;;;;3.97;0.90;;;21.40;51.80;;;;;;4062938;29;20374;-75
2021/10/15 03:50:47;;;;;;;4.18;1.08;;;21.40;51.50;;;;;;4061466;29;20526;-74
2021/10/15 03:52:50;;;;;;;4.95;1.13;;;21.30;51.60;;;;;;4061728;29;20495;-78
2021/10/15 03:54:52;;;;;;;3.65;1.13;;;21.40;52.10;;;;;;4058025;29;20032;-78
2021/10/15 03:56:55;;;;;;;3.65;0.90;;;21.30;51.90;;;;;;4058252;29;20486;-78
2021/10/15 03:58:58;;;;;;;2.47;0.80;;;21.30;52.20;;;;;;4055986;29;20052;-75
2021/10/15 04:01:00;;;;;;;3.60;1.17;;;21.40;51.90;;;;;;4043844;29;20041;-72
2021/10/15 04:03:03;;;;;;;2.13;0.60;;;21.40;52.20;;;;;;4052849;29;20538;-73
2021/10/15 04:05:10;;;;;;;1.35;0.57;;;21.40;51.80;;;;;;4058590;29;20412;-76
2021/10/15 04:07:12;;;;;;;4.10;0.95;;;21.50;51.90;;;;;;4061544;29;20054;-74
2021/10/15 04:09:15;;;;;;;3.83;1.05;;;21.50;51.90;;;;;;4056343;29;20060;-78
2021/10/15 04:11:17;;;;;;;4.13;1.00;;;21.50;51.80;;;;;;4054084;29;20118;-74
2021/10/15 04:13:20;;;;;;;3.10;1.00;;;21.60;51.90;;;;;;4059378;29;20063;-79
2021/10/15 04:15:22;;;;;;;1.90;0.73;;;21.60;51.90;;;;;;4060586;29;20378;-73
2021/10/15 04:17:25;;;;;;;3.13;0.90;;;21.70;51.70;;;;;;4060012;29;20040;-77
2021/10/15 04:19:28;;;;;;;4.88;0.90;;;21.70;51.80;;;;;;4055733;29;20044;-77
2021/10/15 04:21:30;;;;;;;2.23;0.93;;;21.70;51.70;;;;;;4055588;29;20051;-77
2021/10/15 04:23:33;;;;;;;0.60;0.60;;;21.80;51.60;;;;;;4068677;29;20306;-77
2021/10/15 04:25:36;;;;;;;2.20;1.20;;;21.80;51.40;;;;;;4070084;29;20071;-74
2021/10/15 04:27:39;;;;;;;2.00;0.95;;;21.80;51.30;;;;;;4061987;29;20184;-74
2021/10/15 04:29:41;;;;;;;2.45;0.77;;;21.80;51.40;;;;;;4063536;29;20051;-77
2021/10/15 04:31:44;;;;;;;1.60;0.70;;;21.90;51.40;;;;;;4059650;29;20052;-77
2021/10/15 04:33:46;;;;;;;2.58;0.88;;;21.90;51.90;;;;;;4056594;29;20040;-77
2021/10/15 04:35:49;;;;;;;3.60;0.50;;;21.90;51.20;;;;;;4045195;29;20036;-75
2021/10/15 04:37:51;;;;;;;4.40;0.90;;;21.90;51.30;;;;;;4061863;29;20306;-77
2021/10/15 04:39:54;;;;;;;2.55;0.90;;;21.90;51.30;;;;;;4063399;29;20032;-77
2021/10/15 04:41:56;;;;;;;1.37;0.60;;;21.90;51.30;;;;;;4062344;29;20055;-76
2021/10/15 04:43:59;;;;;;;1.87;0.80;;;21.90;51.40;;;;;;4060640;29;20279;-75
2021/10/15 04:46:01;;;;;;;2.15;0.70;;;21.90;51.60;;;;;;4060708;29;20108;-74
2021/10/15 04:48:04;;;;;;;1.43;0.97;;;21.90;52.20;;;;;;4061669;29;20107;-78
2021/10/15 04:50:08;;;;;;;1.67;0.50;;;21.80;51.60;;;;;;4065707;29;20107;-76
2021/10/15 04:52:10;;;;;;;1.52;0.73;;;21.80;51.70;;;;;;4059562;29;20051;-77
2021/10/15 04:54:13;;;;;;;3.23;0.90;;;21.80;51.70;;;;;;4052092;29;20036;-77
2021/10/15 04:56:15;;;;;;;2.30;0.77;;;21.90;51.60;;;;;;4057958;29;20722;-77
2021/10/15 04:58:17;;;;;;;2.10;0.80;;;21.90;51.50;;;;;;4061443;29;20056;-66
2021/10/15 05:00:20;;;;;;;0.80;0.57;;;21.90;51.40;;;;;;4059386;29;20320;-66
2021/10/15 05:02:22;;;;;;;4.15;1.00;;;21.90;51.40;;;;;;4057032;29;20040;-67
2021/10/15 05:04:25;;;;;;;3.67;0.93;;;21.90;51.40;;;;;;4058392;29;20043;-67
2021/10/15 05:06:28;;;;;;;1.75;0.52;;;21.90;51.30;;;;;;4053947;29;20054;-66
2021/10/15 05:08:33;;;;;;;5.50;0.70;;;22.00;51.40;;;;;;4057081;29;20095;-66
2021/10/15 05:10:35;;;;;;;1.02;0.50;;;22.00;51.30;;;;;;4059812;29;20048;-67
2021/10/15 05:12:39;;;;;;;1.75;0.60;;;22.00;51.20;;;;;;4060709;29;20115;-66
2021/10/15 05:14:43;;;;;;;4.55;0.88;;;22.00;51.30;;;;;;4059760;29;20693;-64
2021/10/15 05:16:46;;;;;;;1.23;0.50;;;22.00;51.30;;;;;;4059540;29;20505;-66
2021/10/15 05:18:48;;;;;;;3.92;0.93;;;22.00;51.20;;;;;;4061524;29;20100;-67
2021/10/15 05:20:51;;;;;;;2.45;0.80;;;22.00;50.70;;;;;;4062112;29;20028;-66
2021/10/15 05:22:53;;;;;;;1.55;0.93;;;21.90;49.20;;;;;;4059042;29;20044;-66
2021/10/15 05:24:56;;;;;;;1.95;0.60;;;21.90;48.90;;;;;;4058027;29;20134;-65
2021/10/15 05:26:59;;;;;;;1.47;0.70;;;21.90;47.60;;;;;;4062358;29;20064;-67
2021/10/15 05:29:01;;;;;;;2.47;0.70;;;21.90;47.80;;;;;;4056074;29;20302;-65
2021/10/15 05:31:04;;;;;;;1.75;0.57;;;21.90;47.80;;;;;;4057590;29;20048;-66
2021/10/15 05:33:08;;;;;;;0.70;0.50;;;21.80;47.90;;;;;;4059438;29;20410;-66
2021/10/15 05:35:10;;;;;;;1.75;0.50;;;21.80;47.20;;;;;;4061203;29;20059;-64
2021/10/15 05:37:14;;;;;;;2.65;0.85;;;21.80;47.60;;;;;;4060955;29;20052;-67
2021/10/15 05:39:17;;;;;;;2.20;0.73;;;21.80;48.00;;;;;;4062387;29;20044;-67
2021/10/15 05:41:19;;;;;;;0.93;0.50;;;21.80;48.40;;;;;;4060178;29;20036;-67
2021/10/15 05:43:22;;;;;;;3.92;0.60;;;21.80;48.50;;;;;;4057644;29;20103;-66
2021/10/15 05:45:26;;;;;;;1.80;0.40;;;21.80;48.20;;;;;;4058223;29;20860;-66
2021/10/15 05:47:28;;;;;;;3.00;0.63;;;21.80;48.50;;;;;;4059861;29;20287;-65
2021/10/15 05:49:33;;;;;;;0.95;0.60;;;21.80;48.60;;;;;;4056779;29;20044;-65
2021/10/15 05:51:42;;;;;;;3.08;0.75;;;21.80;48.80;;;;;;4061608;29;20036;-66
2021/10/15 05:53:45;;;;;;;4.80;1.90;;;21.80;48.70;;;;;;4053133;29;20040;-67
2021/10/15 06:00:31;;;;;;;6.88;3.33;;;21.80;49.50;;;;;;4061020;29;20047;-66
2021/10/15 06:02:35;;;;;;;8.50;4.85;;;21.90;49.90;;;;;;4062558;29;20055;-65
2021/10/15 06:05:26;;;;;;;8.10;5.18;;;21.90;50.20;;;;;;4053903;29;20036;-67
2021/10/15 06:14:25;;;;;;;14.10;6.07;;;22.00;50.30;;;;;;4058560;29;20054;-66
2021/10/15 06:16:29;;;;;;;12.77;6.63;;;21.90;50.50;;;;;;4060816;29;20040;-64
2021/10/15 06:18:38;;;;;;;14.68;6.00;;;21.90;50.60;;;;;;4061073;29;20036;-67
2021/10/15 06:20:41;;;;;;;11.07;6.00;;;21.90;50.70;;;;;;4060256;29;20040;-67
2021/10/15 06:22:43;;;;;;;9.93;5.32;;;22.00;50.80;;;;;;4060906;29;20044;-67
2021/10/15 06:24:49;;;;;;;13.97;5.80;;;22.00;50.90;;;;;;4062141;29;20072;-66
2021/10/15 06:26:52;;;;;;;12.02;4.80;;;22.00;51.00;;;;;;4047126;29;20044;-67
2021/10/15 06:28:54;;;;;;;10.55;5.07;;;22.00;51.00;;;;;;4045377;29;20037;-67
2021/10/15 06:30:57;;;;;;;10.93;5.50;;;22.00;51.00;;;;;;4046203;29;20048;-67
2021/10/15 06:32:59;;;;;;;9.65;4.47;;;22.00;51.00;;;;;;4034998;29;20037;-68
2021/10/15 06:35:02;;;;;;;7.93;3.88;;;22.10;51.20;;;;;;4036601;29;20129;-65
2021/10/15 06:37:04;;;;;;;9.32;4.03;;;22.10;51.10;;;;;;4039987;29;20116;-64
2021/10/15 06:39:07;;;;;;;10.23;4.55;;;22.10;51.10;;;;;;4039784;29;20045;-65
2021/10/15 06:41:09;;;;;;;14.23;5.13;;;22.10;51.10;;;;;;4038590;29;20066;-67
2021/10/15 06:43:12;;;;;;;10.80;3.90;;;22.10;51.30;;;;;;4038061;29;20298;-65
2021/10/15 06:45:15;;;;;;;8.90;4.43;;;22.20;51.60;;;;;;4039773;29;20070;-67
2021/10/15 06:47:18;;;;;;;8.65;3.15;;;22.20;51.70;;;;;;4040863;29;20128;-65
2021/10/15 06:49:21;;;;;;;8.10;4.00;;;22.20;52.00;;;;;;4039028;29;20068;-67
2021/10/15 06:51:23;;;;;;;12.15;3.65;;;22.20;52.20;;;;;;4043902;29;20096;-67
2021/10/15 06:53:26;;;;;;;17.47;3.87;;;22.30;52.60;;;;;;4040309;29;20056;-66
2021/10/15 06:55:28;;;;;;;9.67;3.17;;;22.30;53.10;;;;;;4038478;29;20310;-68
2021/10/15 06:57:31;;;;;;;7.07;3.47;;;22.30;53.10;;;;;;4039778;29;20314;-67
2021/10/15 06:59:34;;;;;;;5.60;3.00;;;22.40;53.20;;;;;;4035853;29;20040;-66
2021/10/15 07:01:37;;;;;;;6.85;3.10;;;22.40;53.20;;;;;;4034572;29;20044;-68
2021/10/15 07:03:39;;;;;;;9.13;3.15;;;22.40;53.40;;;;;;4039351;29;20039;-69
2021/10/15 07:05:42;;;;;;;7.10;3.20;;;22.50;53.60;;;;;;4037325;29;20044;-68
2021/10/15 07:07:45;;;;;;;13.85;3.40;;;22.50;53.60;;;;;;4037125;29;20045;-69
2021/10/15 07:09:47;;;;;;;5.00;2.70;;;22.60;53.50;;;;;;4037900;29;20406;-68
2021/10/15 07:11:50;;;;;;;5.70;2.67;;;22.60;53.60;;;;;;4041139;29;20028;-66
2021/10/15 07:13:52;;;;;;;4.82;2.35;;;22.70;53.60;;;;;;4035403;29;20037;-69
2021/10/15 07:15:55;;;;;;;6.15;2.58;;;22.70;53.60;;;;;;4037365;29;20490;-67
2021/10/15 07:17:58;;;;;;;7.45;2.58;;;22.70;53.60;;;;;;4037487;29;20096;-67
2021/10/15 07:20:01;;;;;;;5.53;2.50;;;22.70;53.60;;;;;;4040326;29;20386;-68
2021/10/15 07:22:04;;;;;;;7.03;2.17;;;22.70;53.60;;;;;;4042676;29;20036;-66
2021/10/15 07:24:07;;;;;;;5.60;2.35;;;22.70;53.60;;;;;;4035048;29;20048;-69
2021/10/15 07:26:10;;;;;;;3.45;2.00;;;22.70;53.60;;;;;;4049641;29;20069;-71
2021/10/15 07:28:13;;;;;;;4.65;2.20;;;22.70;53.50;;;;;;4054184;29;20414;-68
2021/10/15 07:30:16;;;;;;;4.10;2.20;;;22.70;53.60;;;;;;4055478;29;20470;-67
2021/10/15 07:32:19;;;;;;;3.83;1.75;;;22.70;53.50;;;;;;4054655;29;20039;-66
2021/10/15 07:34:22;;;;;;;7.30;2.33;;;22.70;53.50;;;;;;4050366;29;20048;-67
2021/10/15 07:36:25;;;;;;;3.67;1.67;;;22.80;54.20;;;;;;4054737;29;20048;-69
2021/10/15 07:38:27;;;;;;;4.20;2.15;;;22.80;53.70;;;;;;4035479;29;20071;-69
2021/10/15 07:40:30;;;;;;;3.50;1.90;;;22.80;53.70;;;;;;4059072;29;20051;-70
2021/10/15 07:42:35;;;;;;;3.87;1.93;;;22.80;53.70;;;;;;4056942;29;20745;-70
2021/10/15 07:44:38;;;;;;;2.97;1.52;;;22.80;53.70;;;;;;4053602;29;20068;-70
2021/10/15 07:46:41;;;;;;;3.85;1.75;;;22.80;53.60;;;;;;4052816;29;20043;-67
2021/10/15 07:48:44;;;;;;;3.50;1.70;;;22.80;54.20;;;;;;4052635;29;20083;-67
2021/10/15 07:50:47;;;;;;;2.65;1.63;;;22.80;53.70;;;;;;4052039;29;20052;-68
2021/10/15 07:52:49;;;;;;;2.75;1.52;;;22.80;53.60;;;;;;4054718;29;20036;-67
2021/10/15 07:54:52;;;;;;;2.95;1.55;;;22.80;53.60;;;;;;4049342;29;20139;-66
2021/10/15 07:56:55;;;;;;;5.03;1.30;;;22.90;53.60;;;;;;4034220;29;20097;-68
2021/10/15 07:58:57;;;;;;;5.50;1.63;;;22.80;53.60;;;;;;4056426;29;20882;-67
2021/10/15 08:01:00;;;;;;;4.13;1.52;;;22.80;53.50;;;;;;4050149;29;20084;-68
2021/10/15 08:03:02;;;;;;;;;;;22.90;53.50;;;;;;4056557;29;20425;-69
2021/10/15 08:05:06;;;;;;;2.75;1.48;;;22.80;53.40;;;;;;4053873;29;20281;-69
2021/10/15 08:07:08;;;;;;;2.08;1.30;;;22.80;52.80;;;;;;4046231;29;20585;-68
2021/10/15 08:09:11;;;;;;;3.40;1.50;;;22.80;52.80;;;;;;4051327;29;20040;-68
2021/10/15 08:11:14;;;;;;;1.93;1.10;;;22.80;53.00;;;;;;4054798;29;20080;-68
2021/10/15 08:13:16;;;;;;;1.85;0.98;;;22.80;53.00;;;;;;4049339;29;20359;-67
2021/10/15 08:15:19;;;;;;;1.88;1.08;;;22.80;52.90;;;;;;4057131;29;20379;-67
2021/10/15 08:17:22;;;;;;;1.77;0.90;;;22.90;52.50;;;;;;4052456;29;20032;-68
2021/10/15 08:19:24;;;;;;;2.13;0.88;;;22.80;52.00;;;;;;4037296;29;20482;-67
2021/10/15 08:21:30;;;;;;;2.67;0.87;;;22.80;52.10;;;;;;4053933;29;20123;-67
2021/10/15 08:23:32;;;;;;;1.95;1.00;;;22.80;52.30;;;;;;4054139;29;20331;-69
2021/10/15 08:25:35;;;;;;;4.95;1.15;;;22.80;52.40;;;;;;4047437;29;20426;-69
2021/10/15 08:27:37;;;;;;;2.40;0.80;;;22.80;52.80;;;;;;4039280;29;20080;-67
2021/10/15 08:29:40;;;;;;;1.25;0.90;;;22.80;52.90;;;;;;4054883;29;20131;-71
2021/10/15 08:31:43;;;;;;;2.08;0.90;;;22.80;53.10;;;;;;4054912;29;20525;-69
2021/10/15 08:33:45;;;;;;;2.35;1.00;;;22.80;53.10;;;;;;4056868;29;20832;-69
2021/10/15 08:35:48;;;;;;;1.17;0.95;;;22.80;53.20;;;;;;4039923;29;20084;-67
2021/10/15 08:37:52;;;;;;;2.17;0.95;;;22.80;53.30;;;;;;4056837;29;20419;-67
2021/10/15 08:39:54;;;;;;;2.45;1.00;;;22.80;53.20;;;;;;4057576;29;20044;-68
2021/10/15 08:41:58;;;;;;;5.05;1.38;;;22.80;53.30;;;;;;4054753;29;20494;-67
2021/10/15 08:44:01;;;;;;;2.55;1.00;;;22.80;53.30;;;;;;4052770;29;20475;-69
2021/10/15 08:46:04;;;;;;;5.20;0.68;;;22.80;53.40;;;;;;4050398;29;20578;-68
2021/10/15 08:48:08;;;;;;;2.70;1.08;;;22.80;53.10;;;;;;4053270;29;20774;-66
2021/10/15 08:50:10;;;;;;;2.75;1.20;;;22.80;53.50;;;;;;4054516;29;20173;-68
2021/10/15 08:52:15;;;;;;;2.83;0.93;;;22.80;53.60;;;;;;4059039;29;20494;-69
2021/10/15 08:54:18;;;;;;;2.88;0.88;;;22.90;53.60;;;;;;4058727;29;20040;-68
2021/10/15 08:56:22;;;;;;;0.93;0.73;;;22.80;53.60;;;;;;4056851;29;20713;-70
2021/10/15 08:58:41;;;;;;;3.17;0.98;;;22.80;53.60;;;;;;4055113;29;20498;-70
2021/10/15 09:00:44;;;;;;;2.38;0.95;;;22.80;53.70;;;;;;4056495;29;20941;-70
2021/10/15 09:02:51;;;;;;;1.33;0.70;;;22.80;53.80;;;;;;4058552;29;20711;-67
2021/10/15 09:04:56;;;;;;;2.05;0.75;;;22.90;53.90;;;;;;4054126;29;20040;-68
2021/10/15 09:07:14;;;;;;;2.75;0.80;;;22.80;53.90;;;;;;4058461;29;20043;-68
2021/10/15 09:09:28;;;;;;;1.13;0.77;;;22.80;53.90;;;;;;4056703;29;20731;-67
2021/10/15 09:11:36;;;;;;;2.40;1.10;;;22.80;54.00;;;;;;4058925;29;20044;-71
2021/10/15 09:13:38;;;;;;;1.88;0.75;;;22.80;54.10;;;;;;4052483;29;20068;-68
2021/10/15 09:15:41;;;;;;;1.67;0.90;;;22.80;54.10;;;;;;4055966;29;20143;-69
2021/10/15 09:17:52;;;;;;;2.17;1.00;;;22.80;54.10;;;;;;4041840;29;21103;-68
2021/10/15 09:19:56;;;;;;;2.50;1.15;;;22.80;54.10;;;;;;4056500;29;20336;-69
2021/10/15 09:22:03;;;;;;;;;;;22.80;54.10;;;;;;4058740;29;20042;-69
2021/10/15 09:24:06;;;;;;;1.48;0.70;;;22.80;54.10;;;;;;4056130;29;20365;-67
2021/10/15 09:26:09;;;;;;;2.00;1.05;;;22.80;54.10;;;;;;4057553;29;20056;-68
2021/10/15 09:28:22;;;;;;;1.83;0.80;;;22.80;54.10;;;;;;4056282;29;20073;-67
2021/10/15 09:30:28;;;;;;;2.83;0.70;;;22.80;54.10;;;;;;4057902;29;20059;-68
2021/10/15 09:32:33;;;;;;;2.33;1.10;;;22.80;54.10;;;;;;4055509;29;20127;-66
2021/10/15 09:34:36;;;;;;;1.35;1.05;;;22.80;54.10;;;;;;4052157;29;20151;-66
2021/10/15 09:36:48;;;;;;;1.08;0.82;;;22.80;54.40;;;;;;4055038;29;20080;-69
2021/10/15 09:38:51;;;;;;;3.45;1.10;;;22.80;54.40;;;;;;4055370;29;20183;-69
2021/10/15 09:40:56;;;;;;;1.63;0.85;;;22.80;54.40;;;;;;4054581;29;20148;-68
2021/10/15 09:43:04;;;;;;;0.77;0.60;;;22.80;54.40;;;;;;4053987;29;20071;-69
2021/10/15 09:45:17;;;;;;;2.92;0.77;;;22.80;54.40;;;;;;4058143;29;20043;-69
2021/10/15 09:47:24;;;;;;;3.20;1.00;;;22.80;54.40;;;;;;4040128;29;20179;-70
2021/10/15 09:49:50;;;;;;;1.60;0.75;;;22.70;54.30;;;;;;4057349;29;20549;-69
2021/10/15 09:52:01;;;;;;;1.88;1.10;;;22.70;54.40;;;;;;4051841;29;20119;-68
2021/10/15 09:54:15;;;;;;;0.95;0.55;;;22.70;54.40;;;;;;4057546;29;20032;-70
2021/10/15 09:56:49;;;;;;;0.80;0.70;;;22.70;54.40;;;;;;4039856;29;20040;-68
2021/10/15 09:58:56;;;;;;;2.10;0.75;;;22.80;54.40;;;;;;4055333;29;20376;-68
2021/10/15 10:00:58;;;;;;;3.20;0.95;;;22.70;54.30;;;;;;4039347;29;20045;-70
2021/10/15 10:03:01;;;;;;;0.90;0.75;;;22.70;54.30;;;;;;4056243;29;20035;-68
2021/10/15 10:05:11;;;;;;;3.53;0.93;;;22.70;54.30;;;;;;4052191;29;20055;-67
2021/10/15 10:07:17;;;;;;;1.45;0.68;;;22.70;54.30;;;;;;4039081;29;20041;-67
2021/10/15 10:09:22;;;;;;;10.57;1.20;;;22.70;54.30;;;;;;4054992;29;20131;-67
2021/10/15 10:11:26;;;;;;;1.88;0.90;;;22.70;54.30;;;;;;4056771;29;20601;-68
2021/10/15 10:13:29;;;;;;;2.25;0.88;;;22.70;54.20;;;;;;4052191;29;20033;-68
2021/10/15 10:15:34;;;;;;;0.70;0.50;;;22.70;54.20;;;;;;4055198;29;20032;-67
2021/10/15 10:17:46;;;;;;;1.50;0.88;;;22.70;54.20;;;;;;4058344;29;20375;-69
2021/10/15 10:19:53;;;;;;;1.75;0.70;;;22.60;54.10;;;;;;4056080;29;20051;-67
2021/10/15 10:21:56;;;;;;;2.10;0.80;;;22.60;54.20;;;;;;4053863;29;20047;-69
2021/10/15 10:24:01;;;;;;;2.45;0.70;;;22.60;54.10;;;;;;4041777;29;20040;-68
2021/10/15 10:26:11;;;;;;;1.13;0.90;;;22.60;54.10;;;;;;4052038;29;20055;-69
2021/10/15 10:28:20;;;;;;;1.90;0.65;;;22.60;54.10;;;;;;4054533;29;20107;-68
2021/10/15 10:30:37;;;;;;;1.08;0.73;;;22.60;54.00;;;;;;4055517;29;20052;-69
2021/10/15 10:32:40;;;;;;;0.70;0.57;;;22.60;54.00;;;;;;4053296;29;20118;-68
2021/10/15 10:34:42;;;;;;;1.23;0.90;;;22.60;54.00;;;;;;4051388;29;20036;-68
2021/10/15 10:37:09;;;;;;;0.85;0.68;;;22.60;54.00;;;;;;4054182;29;20295;-67
2021/10/15 10:39:21;;;;;;;1.42;1.02;;;22.60;54.00;;;;;;4058485;29;20059;-68
2021/10/15 10:41:28;;;;;;;1.25;0.85;;;22.50;54.00;;;;;;4053348;29;20389;-69
2021/10/15 10:43:46;;;;;;;1.08;0.70;;;22.50;54.00;;;;;;4056454;29;20043;-69
2021/10/15 10:46:12;;;;;;;0.98;0.68;;;22.50;54.00;;;;;;4052453;29;20047;-70
2021/10/15 10:48:14;;;;;;;1.63;0.77;;;22.50;54.00;;;;;;4050808;29;20632;-68
2021/10/15 10:50:17;;;;;;;2.95;0.93;;;22.50;54.00;;;;;;4056043;29;20047;-67
2021/10/15 10:52:20;;;;;;;1.13;0.60;;;22.50;54.00;;;;;;4058533;29;20040;-70
2021/10/15 10:54:25;;;;;;;;;;;22.50;53.90;;;;;;4056005;29;20115;-68
2021/10/15 10:56:40;;;;;;;1.75;0.60;;;22.50;53.90;;;;;;4057628;29;19915;-70
2021/10/15 10:58:43;;;;;;;1.05;0.60;;;22.50;53.80;;;;;;4051732;29;20118;-68